< < Back
Terminal Aerodrome Forecast


Current Version              Previous Versions:   1  2  3  4  5  6  7  8  9  

Terminal Aerodrome Forecast

718
FTUS44 KOHX 071020 AAB
TAFCSV
TAF AMD
KCSV 071020Z 0710/0806 24003KT 6SM BR BKN009
      TEMPO 0710/0712 4SM BR SCT010
     FM071300 23007G15KT P6SM SCT030 SCT120 SCT250
     FM080000 21007KT P6SM OVC250=



Latest METAR

096
SAUS70 KWBC 071500 RRI
MTRCSV
METAR KCSV 071453Z AUTO 24007KT 200V270 10SM BKN020 BKN026 26/21 A3018
RMK AO2 SLP198 T02610211 50006


USA.gov is the U.S. government's official web portal to all federal, state and local government web resources and services.